Beauval, Canada
Current Conditions -  °F | °C
As of 10:00 PM on Saturday 20 Dec 2014 (Local Time) from CYVT Reporting Station
Light Snow Light Snow  
Wind Chill:   Ceiling: 1300
Heat Index: 19°   Visibility: 12mi
Dew Point: 16°   Wind: 8mph
Humidity: 86%   Direction: 150°SSE
Pressure: 29.58"   Gusts: NA
Location:  55.15°N, 107.62°W
Report Text: CYVT 210400Z 15007KT 12SM -SN OVC013 M07/M09 A2958 RMK SC8 SN COV/ONE LOOSE LAST STFD OBS/NEXT 211200UTC SLP050
Loading
Personal Weather Stations






























Interactive Weather Map New forecast layout! Learn more

10-Day Weather Forecast

Advertisements
Track Severe Weather on mobile